createdAt,value
2023-02-17T00:02:27.699Z,27.20
2023-02-17T00:05:30.714Z,28.53
2023-02-17T00:08:33.767Z,26.43
2023-02-17T00:11:38.121Z,27.83
2023-02-17T00:14:41.614Z,28.50
2023-02-17T00:17:47.585Z,30.00
2023-02-17T00:20:51.165Z,30.57
2023-02-17T00:23:55.099Z,30.53
2023-02-17T00:26:59.657Z,30.47
2023-02-17T00:30:03.218Z,29.07
2023-02-17T00:33:06.716Z,29.47
2023-02-17T00:36:14.140Z,30.70
2023-02-17T00:39:18.697Z,32.60
2023-02-17T00:42:26.354Z,32.93
2023-02-17T00:45:29.497Z,33.90
2023-02-17T00:48:33.527Z,33.27
2023-02-17T00:51:36.628Z,31.97
2023-02-17T00:54:41.951Z,32.27
2023-02-17T00:57:47.529Z,31.37
2023-02-17T01:00:50.856Z,31.90
2023-02-17T01:03:54.096Z,31.03
2023-02-17T01:06:57.254Z,32.43
2023-02-17T01:10:00.429Z,34.33
2023-02-17T01:13:06.486Z,31.97
2023-02-17T01:16:19.033Z,31.27
2023-02-17T01:19:22.378Z,30.43
2023-02-17T01:22:26.892Z,30.57
2023-02-17T01:25:32.091Z,30.97
2023-02-17T01:28:36.859Z,31.80
2023-02-17T01:31:41.402Z,32.57
2023-02-17T01:34:48.938Z,30.60
2023-02-17T01:37:52.015Z,31.43
2023-02-17T01:40:55.757Z,31.90
2023-02-17T01:44:14.334Z,34.00
2023-02-17T01:47:17.743Z,33.97
2023-02-17T01:50:25.968Z,32.67
2023-02-17T01:53:37.205Z,31.47
2023-02-17T01:56:44.716Z,31.93
2023-02-17T01:59:52.862Z,35.50
2023-02-17T02:02:59.093Z,32.80
2023-02-17T02:06:05.879Z,30.30
2023-02-17T02:09:17.991Z,33.17
2023-02-17T02:12:23.906Z,34.80
2023-02-17T02:15:35.392Z,34.27
2023-02-17T02:18:50.345Z,33.83
2023-02-17T02:23:08.819Z,34.87
2023-02-17T02:26:54.632Z,35.40
2023-02-17T02:30:29.593Z,37.10
2023-02-17T02:33:41.616Z,34.43
2023-02-17T02:36:50.415Z,35.53
2023-02-17T02:39:56.925Z,32.03
2023-02-17T02:43:06.217Z,35.73
2023-02-17T02:46:09.889Z,34.50
2023-02-17T02:49:16.624Z,34.63
2023-02-17T02:52:31.176Z,35.30
2023-02-17T02:55:52.262Z,36.37
2023-02-17T02:59:08.062Z,32.87
2023-02-17T03:02:20.632Z,36.03
2023-02-17T03:05:33.815Z,35.17
2023-02-17T03:08:43.887Z,33.83
2023-02-17T03:11:48.782Z,37.40
2023-02-17T03:14:58.358Z,35.60
2023-02-17T03:18:03.736Z,39.40
2023-02-17T03:21:16.114Z,38.37
2023-02-17T03:24:20.030Z,38.60
2023-02-17T03:27:23.606Z,36.73
2023-02-17T03:30:26.749Z,37.97
2023-02-17T03:33:30.461Z,37.73
2023-02-17T03:36:38.617Z,36.23
2023-02-17T03:39:41.763Z,38.67
2023-02-17T03:42:45.246Z,37.47
2023-02-17T03:45:48.404Z,37.03
2023-02-17T03:48:54.305Z,38.10
2023-02-17T03:51:59.513Z,39.17
2023-02-17T03:55:02.832Z,37.80
2023-02-17T03:58:06.051Z,38.17
2023-02-17T04:01:12.257Z,39.80
2023-02-17T04:04:15.426Z,36.47
2023-02-17T04:07:20.142Z,39.43
2023-02-17T04:10:23.321Z,39.27
2023-02-17T04:13:26.884Z,39.97
2023-02-17T04:16:30.164Z,37.60
2023-02-17T04:19:36.957Z,38.87
2023-02-17T04:22:58.010Z,36.90
2023-02-17T04:26:01.705Z,40.50
2023-02-17T04:29:07.188Z,38.33
2023-02-17T04:32:10.490Z,36.10
2023-02-17T04:35:15.752Z,38.63
2023-02-17T04:38:20.689Z,37.67
2023-02-17T04:41:24.204Z,37.63
2023-02-17T04:44:27.743Z,36.53
2023-02-17T04:47:31.014Z,36.23
2023-02-17T04:50:34.290Z,37.90
2023-02-17T04:53:38.825Z,38.30
2023-02-17T04:56:42.445Z,39.03
2023-02-17T04:59:45.952Z,36.07
2023-02-17T05:02:49.516Z,35.63
2023-02-17T05:05:55.713Z,36.27
2023-02-17T05:09:01.815Z,36.67
2023-02-17T05:12:07.840Z,39.63
2023-02-17T05:15:13.138Z,38.97
2023-02-17T05:18:16.462Z,36.33
2023-02-17T05:21:20.996Z,36.80
2023-02-17T05:24:25.544Z,37.67
2023-02-17T05:27:28.878Z,41.13
2023-02-17T05:30:32.581Z,39.23
2023-02-17T05:33:36.292Z,40.80
2023-02-17T05:36:42.389Z,41.07
2023-02-17T05:39:47.372Z,39.80
2023-02-17T05:42:50.818Z,39.40
2023-02-17T05:45:54.455Z,37.53
2023-02-17T05:48:57.894Z,37.63
2023-02-17T05:52:05.309Z,39.33
2023-02-17T05:55:17.955Z,41.40
2023-02-17T05:58:21.144Z,37.17
2023-02-17T06:01:24.214Z,36.83
2023-02-17T06:04:29.127Z,36.30
2023-02-17T06:07:32.669Z,36.27
2023-02-17T06:10:37.209Z,34.13
2023-02-17T06:13:42.593Z,38.07
2023-02-17T06:16:45.806Z,39.37
2023-02-17T06:19:49.854Z,36.80
2023-02-17T06:22:53.072Z,37.23
2023-02-17T06:25:57.723Z,35.23
2023-02-17T06:29:01.015Z,37.50
2023-02-17T06:32:04.445Z,36.37
2023-02-17T06:35:08.540Z,35.13
2023-02-17T06:38:11.853Z,34.60
2023-02-17T06:41:16.507Z,34.87
2023-02-17T06:44:20.198Z,34.60
2023-02-17T06:47:23.434Z,33.57
2023-02-17T06:50:26.709Z,33.03
2023-02-17T06:53:30.133Z,32.27
2023-02-17T06:56:34.762Z,32.63
2023-02-17T06:59:38.031Z,31.27
2023-02-17T07:02:41.689Z,31.73
2023-02-17T07:05:44.991Z,32.00
2023-02-17T07:08:48.331Z,30.83
2023-02-17T07:11:52.908Z,30.20
2023-02-17T07:14:56.177Z,29.83
2023-02-17T07:18:00.231Z,29.00
2023-02-17T07:21:03.343Z,29.00
2023-02-17T07:24:06.990Z,27.80
2023-02-17T07:27:11.933Z,29.73
2023-02-17T07:30:15.791Z,29.70
2023-02-17T07:33:24.166Z,28.10
2023-02-17T07:36:27.332Z,27.77
2023-02-17T07:39:30.837Z,27.30
2023-02-17T07:42:35.287Z,27.07
2023-02-17T07:45:39.548Z,28.47
2023-02-17T07:48:42.927Z,27.43
2023-02-17T07:51:50.252Z,26.27
2023-02-17T07:54:59.431Z,25.63
2023-02-17T07:58:03.940Z,26.27
2023-02-17T08:01:10.022Z,23.80
2023-02-17T08:04:13.255Z,27.77
2023-02-17T08:07:16.884Z,25.03
2023-02-17T08:10:40.845Z,25.70
2023-02-17T08:13:46.191Z,25.63
2023-02-17T08:16:49.383Z,24.20
2023-02-17T08:19:53.059Z,23.33
2023-02-17T08:22:56.137Z,23.13
2023-02-17T08:25:59.639Z,23.33
2023-02-17T08:29:05.078Z,24.13
2023-02-17T08:32:08.826Z,24.30
2023-02-17T08:35:12.097Z,24.57
2023-02-17T08:38:16.345Z,25.03
2023-02-17T08:41:23.137Z,23.17
2023-02-17T08:44:27.837Z,22.23
2023-02-17T08:47:31.069Z,22.50
2023-02-17T08:50:34.818Z,22.10
2023-02-17T08:53:38.373Z,23.97
2023-02-17T08:56:42.566Z,22.97
2023-02-17T08:59:48.209Z,23.23
2023-02-17T09:03:17.349Z,22.27
2023-02-17T09:06:28.253Z,24.27
2023-02-17T09:09:39.894Z,25.87
2023-02-17T09:12:44.147Z,24.13
2023-02-17T09:15:50.097Z,23.30
2023-02-17T09:18:54.295Z,24.77
2023-02-17T09:22:03.541Z,22.83
2023-02-17T09:25:08.412Z,23.33
2023-02-17T09:28:12.204Z,24.50
2023-02-17T09:31:36.820Z,24.77
2023-02-17T09:34:53.555Z,25.47
2023-02-17T09:38:14.878Z,24.37
2023-02-17T09:41:36.192Z,23.63
2023-02-17T09:50:43.948Z,24.33
2023-02-17T09:53:59.961Z,23.17
2023-02-17T09:57:05.169Z,23.43
2023-02-17T10:00:17.562Z,24.60
2023-02-17T10:03:31.280Z,24.90
2023-02-17T10:06:42.197Z,24.87
2023-02-17T10:09:49.520Z,24.60
2023-02-17T10:12:58.849Z,24.00
2023-02-17T10:16:08.509Z,23.63
2023-02-17T10:19:21.472Z,22.10
2023-02-17T10:22:37.268Z,25.00
2023-02-17T10:25:59.656Z,27.40
2023-02-17T10:29:16.556Z,24.00
2023-02-17T10:32:25.799Z,24.73
2023-02-17T10:35:52.503Z,26.13
2023-02-17T10:39:04.858Z,27.17
2023-02-17T10:42:17.714Z,27.50
2023-02-17T10:45:30.144Z,27.60
2023-02-17T10:48:40.653Z,26.93
2023-02-17T10:51:46.966Z,27.53
2023-02-17T10:54:57.709Z,26.53
2023-02-17T10:58:08.103Z,25.10
2023-02-17T11:01:11.923Z,26.57
2023-02-17T11:04:18.656Z,25.93
2023-02-17T11:07:36.430Z,27.73
2023-02-17T11:10:43.447Z,25.63
2023-02-17T11:14:08.620Z,27.00
2023-02-17T11:17:22.925Z,26.43
2023-02-17T11:20:37.134Z,26.87
2023-02-17T11:23:50.966Z,23.57
2023-02-17T11:27:06.885Z,22.97
2023-02-17T11:30:18.616Z,24.93
2023-02-17T11:33:26.005Z,24.30
2023-02-17T11:36:32.284Z,24.33
2023-02-17T11:39:41.096Z,22.53
2023-02-17T11:42:45.442Z,22.13
2023-02-17T11:46:00.843Z,21.90
2023-02-17T11:49:45.077Z,20.33
2023-02-17T11:53:10.236Z,22.00
2023-02-17T11:56:18.274Z,20.17
2023-02-17T11:59:50.029Z,21.20
2023-02-17T12:03:37.171Z,22.43
2023-02-17T12:08:02.359Z,19.77
2023-02-17T12:11:21.580Z,18.83
2023-02-17T12:14:50.909Z,18.63
2023-02-17T12:18:07.064Z,18.10
2023-02-17T12:21:23.822Z,17.57
2023-02-17T12:24:46.581Z,14.90
2023-02-17T12:28:15.477Z,15.53
2023-02-17T12:31:48.657Z,15.73
2023-02-17T12:35:01.429Z,14.33
2023-02-17T12:38:18.052Z,13.43
2023-02-17T12:41:27.857Z,14.13
2023-02-17T12:44:42.685Z,12.83
2023-02-17T12:47:56.173Z,14.47
2023-02-17T12:51:07.013Z,18.80
2023-02-17T12:54:19.959Z,14.23
2023-02-17T12:57:26.628Z,12.40
2023-02-17T13:00:35.715Z,12.50
2023-02-17T13:03:42.162Z,12.10
2023-02-17T13:06:53.115Z,11.03
2023-02-17T13:10:00.740Z,10.80
2023-02-17T13:13:07.676Z,11.23
2023-02-17T13:16:13.128Z,10.80
2023-02-17T13:19:29.199Z,9.87
2023-02-17T13:33:53.942Z,9.13
2023-02-17T13:37:16.392Z,8.63
2023-02-17T13:40:44.083Z,9.20
2023-02-17T13:43:48.279Z,8.80
2023-02-17T13:47:00.178Z,8.97
2023-02-17T13:50:07.054Z,8.43
2023-02-17T13:53:36.020Z,7.50
2023-02-17T13:56:44.111Z,7.40
2023-02-17T13:59:47.466Z,7.57
2023-02-17T14:02:54.872Z,7.57
2023-02-17T14:06:05.725Z,7.73
2023-02-17T14:09:46.247Z,6.97
2023-02-17T14:13:13.339Z,6.23
2023-02-17T14:16:36.907Z,6.93
2023-02-17T14:20:12.503Z,7.27
2023-02-17T14:23:16.138Z,7.33
2023-02-17T14:26:38.459Z,6.93
2023-02-17T14:29:52.431Z,6.97
2023-02-17T14:33:23.449Z,7.57
2023-02-17T14:36:42.853Z,7.73
2023-02-17T14:39:53.370Z,7.73
2023-02-17T14:43:32.552Z,7.87
2023-02-17T14:46:54.917Z,9.73
2023-02-17T14:50:25.620Z,8.83
2023-02-17T14:53:53.943Z,9.73
2023-02-17T14:57:11.691Z,9.23
2023-02-17T15:00:25.269Z,12.00
2023-02-17T15:03:37.804Z,11.33
2023-02-17T15:06:55.667Z,15.97
2023-02-17T15:10:36.916Z,12.73
2023-02-17T15:14:01.846Z,11.50
2023-02-17T15:24:45.807Z,14.17
2023-02-17T15:27:55.523Z,12.00
2023-02-17T15:31:00.867Z,13.80
2023-02-17T15:34:20.559Z,15.60
2023-02-17T15:37:27.374Z,14.00
2023-02-17T15:40:49.200Z,14.47
2023-02-17T15:44:09.497Z,15.33
2023-02-17T15:47:26.227Z,16.80
2023-02-17T15:50:46.419Z,15.27
2023-02-17T15:53:53.640Z,14.97
2023-02-17T15:56:59.058Z,17.00
2023-02-17T16:00:11.301Z,18.53
2023-02-17T16:03:26.351Z,19.57
2023-02-17T16:06:43.052Z,16.30
2023-02-17T16:09:54.442Z,17.53
2023-02-17T16:13:07.036Z,19.17
2023-02-17T16:16:19.591Z,17.10
2023-02-17T16:19:28.456Z,17.80
2023-02-17T16:22:33.586Z,16.27
2023-02-17T16:25:39.780Z,16.83
2023-02-17T16:28:48.999Z,13.63
2023-02-17T16:32:01.452Z,13.27
2023-02-17T16:35:18.463Z,12.90
2023-02-17T16:38:31.110Z,14.23
2023-02-17T16:41:34.533Z,13.17
2023-02-17T16:44:42.847Z,12.40
2023-02-17T16:47:53.034Z,12.43
2023-02-17T16:50:57.111Z,18.73
2023-02-17T16:54:09.947Z,10.07
2023-02-17T16:57:19.587Z,10.40
2023-02-17T17:00:31.342Z,10.20
2023-02-17T17:03:36.917Z,8.50
2023-02-17T17:06:50.689Z,9.77
2023-02-17T17:10:15.202Z,9.53
2023-02-17T17:13:20.330Z,9.53
2023-02-17T17:16:28.243Z,8.97
2023-02-17T17:19:32.190Z,8.50
2023-02-17T17:22:36.361Z,8.50
2023-02-17T17:25:51.473Z,6.97
2023-02-17T17:33:20.694Z,7.50
2023-02-17T17:36:38.179Z,7.23
2023-02-17T17:39:46.635Z,7.37
2023-02-17T17:42:57.984Z,7.57
2023-02-17T17:46:20.956Z,7.30
2023-02-17T17:49:28.746Z,7.00
2023-02-17T17:52:33.505Z,8.83
2023-02-17T17:55:56.900Z,6.97
2023-02-17T17:59:15.297Z,6.33
2023-02-17T18:02:23.378Z,6.63
2023-02-17T18:05:52.490Z,6.77
2023-02-17T18:09:31.752Z,7.17
2023-02-17T18:12:52.315Z,8.67
2023-02-17T18:16:19.123Z,8.00
2023-02-17T18:19:36.464Z,9.03
2023-02-17T18:22:40.525Z,5.93
2023-02-17T18:26:06.706Z,7.80
2023-02-17T18:29:15.654Z,5.37
2023-02-17T18:32:31.203Z,4.63
2023-02-17T18:35:47.309Z,5.47
2023-02-17T18:38:57.987Z,4.80
2023-02-17T18:42:11.737Z,4.97
2023-02-17T18:45:30.664Z,4.40
2023-02-17T18:49:02.752Z,4.20
2023-02-17T18:52:15.026Z,4.43
2023-02-17T18:55:41.215Z,5.33
2023-02-17T18:58:48.326Z,4.60
2023-02-17T19:02:09.118Z,3.57
2023-02-17T19:05:40.421Z,3.67
2023-02-17T19:08:56.894Z,6.53
2023-02-17T19:12:21.453Z,4.40
2023-02-17T19:15:37.997Z,3.77
2023-02-17T19:18:58.959Z,3.17
2023-02-17T19:22:17.219Z,3.23
2023-02-17T19:25:26.576Z,3.20
2023-02-17T19:28:34.163Z,3.10
2023-02-17T19:31:49.682Z,3.00
2023-02-17T19:35:05.088Z,3.47
2023-02-17T19:38:15.149Z,3.07
2023-02-17T19:41:36.054Z,4.00
2023-02-17T19:44:49.547Z,4.30
2023-02-17T19:48:01.864Z,3.50
2023-02-17T19:51:37.626Z,3.40
2023-02-17T19:55:18.412Z,3.40
2023-02-17T19:58:38.537Z,3.93
2023-02-17T20:06:36.895Z,3.63
2023-02-17T20:09:56.326Z,3.30
2023-02-17T20:13:05.936Z,4.60
2023-02-17T20:16:22.029Z,4.03
2023-02-17T20:19:32.159Z,4.50
2023-02-17T20:22:48.847Z,3.80
2023-02-17T20:26:13.718Z,3.90
2023-02-17T20:29:26.353Z,4.10
2023-02-17T20:32:40.208Z,4.00
2023-02-17T20:36:01.802Z,3.73
2023-02-17T20:39:22.976Z,4.40
2023-02-17T20:42:49.783Z,4.60
2023-02-17T20:46:02.781Z,3.80
2023-02-17T20:49:23.206Z,4.47
2023-02-17T20:52:29.082Z,3.40
2023-02-17T20:55:40.643Z,4.50
2023-02-17T20:58:46.465Z,3.93
2023-02-17T21:05:16.797Z,4.27
2023-02-17T21:08:22.900Z,4.93
2023-02-17T21:11:41.124Z,4.60
2023-02-17T21:14:54.424Z,4.07
2023-02-17T21:18:02.219Z,4.87
2023-02-17T21:21:18.676Z,4.47
2023-02-17T21:24:37.485Z,4.47
2023-02-17T21:28:06.548Z,4.60
2023-02-17T21:31:27.333Z,4.87
2023-02-17T21:34:51.717Z,4.47
2023-02-17T21:38:36.238Z,5.47
2023-02-17T21:46:18.431Z,4.20
2023-02-17T21:49:43.152Z,4.80
2023-02-17T21:54:08.389Z,4.20
2023-02-17T21:57:38.076Z,4.50
2023-02-17T22:04:11.998Z,5.20
2023-02-17T22:07:23.958Z,5.50
2023-02-17T22:11:33.389Z,5.70
2023-02-17T22:15:06.526Z,4.60
2023-02-17T22:18:36.710Z,4.87
2023-02-17T22:22:00.800Z,4.97
2023-02-17T22:25:08.801Z,5.37
2023-02-17T22:28:24.494Z,4.43
2023-02-17T22:32:13.268Z,4.80
2023-02-17T22:35:22.446Z,5.43
2023-02-17T22:38:26.677Z,5.27
2023-02-17T22:41:32.437Z,4.40
2023-02-17T22:44:37.617Z,5.47
2023-02-17T22:47:40.943Z,5.20
2023-02-17T22:50:44.221Z,4.83
2023-02-17T23:01:55.432Z,5.57
2023-02-17T23:04:35.795Z,4.10
2023-02-17T23:07:52.964Z,4.77
2023-02-17T23:11:10.618Z,5.07
2023-02-17T23:14:20.656Z,5.10
2023-02-17T23:17:28.491Z,5.03
2023-02-17T23:20:39.965Z,5.90
2023-02-17T23:24:20.323Z,5.40
2023-02-17T23:27:49.235Z,7.10
2023-02-17T23:30:54.268Z,5.93
2023-02-17T23:34:00.934Z,5.70
2023-02-17T23:40:35.351Z,8.47
2023-02-17T23:44:04.508Z,6.27
2023-02-17T23:47:17.639Z,5.33
2023-02-17T23:50:24.106Z,5.47
2023-02-17T23:53:45.573Z,7.87
2023-02-17T23:56:53.638Z,7.00
